createdAt,value
2016-09-06T00:01:16.581Z,39.7
2016-09-06T00:12:16.598Z,40
2016-09-06T00:23:17.620Z,39.2
2016-09-06T00:34:16.477Z,39.5
2016-09-06T00:45:16.914Z,39.3
2016-09-06T00:56:16.953Z,39.3
2016-09-06T01:07:16.427Z,39.1
2016-09-06T01:18:16.725Z,39
2016-09-06T01:29:16.988Z,39.2
2016-09-06T01:40:16.553Z,38.6
2016-09-06T01:51:17.304Z,38.7
2016-09-06T02:02:16.932Z,38.1
2016-09-06T02:13:16.220Z,38.7
2016-09-06T02:24:16.626Z,38.7
2016-09-06T02:35:16.285Z,38.4
2016-09-06T02:46:16.836Z,38
2016-09-06T02:57:16.547Z,38.1
2016-09-06T03:08:16.452Z,37.5
2016-09-06T03:19:16.376Z,38.2
2016-09-06T03:30:17.359Z,37.6
2016-09-06T03:41:16.849Z,38.2
2016-09-06T03:52:17.441Z,38
2016-09-06T04:03:16.711Z,37.6
2016-09-06T04:14:16.494Z,37.7
2016-09-06T04:25:16.854Z,37.4
2016-09-06T04:36:16.564Z,37.4
2016-09-06T04:47:17.011Z,37.5
2016-09-06T04:58:16.419Z,36.1
2016-09-06T05:09:17.169Z,37.3
2016-09-06T05:20:16.762Z,36.8
2016-09-06T05:31:16.623Z,36.8
2016-09-06T05:42:16.521Z,35.8
2016-09-06T05:53:16.799Z,36.1
2016-09-06T06:04:17.200Z,35.8
2016-09-06T06:15:17.409Z,35.5
2016-09-06T06:26:16.816Z,35.4
2016-09-06T06:37:16.667Z,35.9
2016-09-06T06:48:16.211Z,35.8
2016-09-06T06:59:16.356Z,35.7
2016-09-06T07:10:16.850Z,35.5
2016-09-06T07:21:16.436Z,36
2016-09-06T07:32:16.891Z,36.3
2016-09-06T07:43:17.206Z,37
2016-09-06T07:54:16.482Z,37.2
2016-09-06T08:05:18.423Z,37.4
2016-09-06T08:16:16.750Z,37.6
2016-09-06T08:27:16.983Z,37.9
2016-09-06T08:38:16.460Z,38.3
2016-09-06T08:49:17.175Z,38.8
2016-09-06T09:00:17.054Z,38.2
2016-09-06T09:11:16.941Z,39
2016-09-06T09:22:16.345Z,38.5
2016-09-06T09:33:17.416Z,38.7
2016-09-06T09:44:16.748Z,39.4
2016-09-06T09:55:17.229Z,39.2
2016-09-06T10:06:17.257Z,39.2
2016-09-06T10:17:17.030Z,39.6
2016-09-06T10:28:16.847Z,39.4
2016-09-06T10:39:16.771Z,39.7
2016-09-06T10:50:17.407Z,39.4
2016-09-06T11:01:17.645Z,39.8
2016-09-06T11:12:17.119Z,39.8
2016-09-06T11:23:17.276Z,40.1
2016-09-06T11:34:17.207Z,39.8
2016-09-06T11:45:16.938Z,39.5
2016-09-06T11:56:17.309Z,39.7
2016-09-06T12:07:17.175Z,39.8
2016-09-06T12:18:16.224Z,39.5
2016-09-06T12:29:17.339Z,39.2
2016-09-06T12:40:17.241Z,39.1
2016-09-06T12:51:16.178Z,39.3
2016-09-06T13:02:17.146Z,40.2
2016-09-06T13:13:16.511Z,39.5
2016-09-06T13:24:16.597Z,39.7
2016-09-06T13:35:16.702Z,39.6
2016-09-06T13:46:16.627Z,40.5
2016-09-06T13:57:16.174Z,39.6
2016-09-06T14:08:16.366Z,40
2016-09-06T14:19:17.165Z,40.1
2016-09-06T14:30:17.235Z,40
2016-09-06T14:41:16.445Z,39.5
2016-09-06T14:52:16.833Z,39.7
2016-09-06T15:03:16.557Z,39.1
2016-09-06T15:14:16.452Z,39.5
2016-09-06T15:25:16.835Z,38.2
2016-09-06T15:36:16.536Z,38.9
2016-09-06T15:47:16.715Z,39.2
2016-09-06T15:58:17.252Z,38.5
2016-09-06T16:09:16.868Z,38.5
2016-09-06T16:20:17.544Z,38.3
2016-09-06T16:31:16.729Z,37.5
2016-09-06T16:42:16.225Z,37.9
2016-09-06T16:53:16.949Z,37.4
2016-09-06T17:04:16.461Z,37.1
2016-09-06T17:15:16.618Z,37
2016-09-06T17:26:16.871Z,36.7
2016-09-06T17:37:17.034Z,36.2
2016-09-06T17:48:17.075Z,36
2016-09-06T17:59:16.684Z,36.4
2016-09-06T18:10:16.743Z,35.1
2016-09-06T18:21:17.062Z,34.9
2016-09-06T18:32:16.406Z,34.5
2016-09-06T18:43:16.568Z,34.7
2016-09-06T18:54:16.903Z,34.2
2016-09-06T19:05:16.901Z,33.9
2016-09-06T19:16:18.682Z,34.1
2016-09-06T19:27:16.416Z,34
2016-09-06T19:38:16.380Z,33.6
2016-09-06T19:49:16.842Z,33.5
2016-09-06T20:00:17.612Z,33.6
2016-09-06T20:11:16.915Z,33.4
2016-09-06T20:22:16.665Z,33
2016-09-06T20:33:16.715Z,36.5
2016-09-06T20:44:16.520Z,38.2
2016-09-06T20:55:16.380Z,39.5
2016-09-06T21:06:17.077Z,40.2
2016-09-06T21:17:16.715Z,41.5
2016-09-06T21:28:16.026Z,42.3
2016-09-06T21:39:16.784Z,38.9
2016-09-06T21:50:16.489Z,39.3
2016-09-06T22:01:16.580Z,39.4
2016-09-06T22:12:16.817Z,39.4
2016-09-06T22:23:16.987Z,38.7
2016-09-06T22:34:16.233Z,38.1
2016-09-06T22:45:17.043Z,37.7
2016-09-06T22:56:16.573Z,37.6
2016-09-06T23:07:17.145Z,37.3
2016-09-06T23:18:16.708Z,37.4
2016-09-06T23:29:17.159Z,37
2016-09-06T23:40:17.080Z,36.3
2016-09-06T23:51:16.129Z,36.1
